Time;durP1;ratioP1;P1;durP2;ratioP2;P2;SDS_P1;SDS_P2;PMS_P1;PMS_P2;Temp;Humidity;BMP_temperature;BMP_pressure;BME280_temperature;BME280_humidity;BME280_pressure;Samples;Min_cycle;Max_cycle;Signal;HPM_P1;HPM_P2
2021/08/13 00:00:22;;;;;;;16.33;10.68;;;;;;;18.44;89.93;95943.69;5078824;28;20558;-77
2021/08/13 00:03:07;;;;;;;18.67;10.82;;;;;;;18.40;89.57;95937.38;5085065;28;20060;-77
2021/08/13 00:05:33;;;;;;;15.95;11.02;;;;;;;18.35;90.87;95934.88;5088208;28;20526;-76
2021/08/13 00:07:58;;;;;;;15.55;10.70;;;;;;;18.45;90.45;95939.94;5087949;28;20055;-76
2021/08/13 00:10:23;;;;;;;14.85;9.82;;;;;;;18.48;89.65;95939.31;5089417;28;20044;-75
2021/08/13 00:12:49;;;;;;;16.23;10.25;;;;;;;18.45;89.58;95939.94;5094066;28;20055;-76
2021/08/13 00:15:15;;;;;;;14.82;10.32;;;;;;;18.30;90.44;95943.00;5085847;28;20047;-76
2021/08/13 00:17:40;;;;;;;14.68;10.95;;;;;;;18.32;89.75;95935.50;5088196;28;20039;-77
2021/08/13 00:20:06;;;;;;;13.02;9.90;;;;;;;18.41;89.71;95938.97;5087014;28;20135;-76
2021/08/13 00:22:32;;;;;;;23.02;10.82;;;;;;;18.35;90.28;95935.66;5092385;28;20051;-76
2021/08/13 00:24:57;;;;;;;17.50;10.50;;;;;;;18.21;90.28;95936.88;5089036;28;20119;-76
2021/08/13 00:27:23;;;;;;;15.70;9.88;;;;;;;18.24;90.34;95933.59;5089110;28;20044;-77
2021/08/13 00:29:48;;;;;;;14.25;9.73;;;;;;;18.22;90.04;95941.13;5085202;28;20055;-77
2021/08/13 00:32:15;;;;;;;14.48;10.25;;;;;;;18.16;90.30;95938.56;5085594;28;20040;-77
2021/08/13 00:34:40;;;;;;;15.25;11.07;;;;;;;18.13;90.96;95939.19;5088823;28;20040;-77
2021/08/13 00:37:06;;;;;;;15.40;10.13;;;;;;;18.22;90.89;95941.13;5088273;28;20055;-77
2021/08/13 00:39:31;;;;;;;13.95;9.80;;;;;;;18.23;90.63;95942.66;5090595;28;20040;-76
2021/08/13 00:41:57;;;;;;;14.88;10.10;;;;;;;18.26;90.01;95947.38;5088923;28;20036;-76
2021/08/13 00:44:23;;;;;;;15.13;9.80;;;;;;;18.04;90.82;95945.56;5092122;28;20044;-77
2021/08/13 00:46:49;;;;;;;17.35;10.80;;;;;;;18.03;90.77;95949.31;5092712;28;20119;-77
2021/08/13 00:49:14;;;;;;;14.20;9.90;;;;;;;18.19;90.26;95942.50;5090743;28;20143;-76
2021/08/13 00:51:40;;;;;;;15.38;10.27;;;;;;;18.12;89.81;95932.28;5080289;28;20040;-76
2021/08/13 00:54:06;;;;;;;13.90;10.20;;;;;;;18.11;90.72;95925.38;5092107;28;20119;-77
2021/08/13 00:56:32;;;;;;;13.52;9.90;;;;;;;18.10;90.93;95929.16;5091552;28;20505;-77
2021/08/13 00:58:58;;;;;;;15.60;10.48;;;;;;;18.20;90.17;95935.28;5091764;28;20051;-77
2021/08/13 01:01:23;;;;;;;16.45;10.30;;;;;;;18.15;90.49;95941.53;5090876;28;20056;-76
2021/08/13 01:03:49;;;;;;;18.20;10.55;;;;;;;18.02;90.41;95937.13;5093018;28;20091;-76
2021/08/13 01:06:18;;;;;;;15.25;9.70;;;;;;;17.96;90.77;95944.44;5091516;28;20048;-77
2021/08/13 01:08:44;;;;;;;15.60;9.88;;;;;;;17.94;90.86;95941.28;5092430;28;20040;-76
2021/08/13 01:11:19;;;;;;;14.77;10.25;;;;;;;17.80;91.41;95942.13;5088990;28;20036;-77
2021/08/13 01:14:04;;;;;;;17.23;11.48;;;;;;;17.78;91.47;95954.94;5082208;28;20044;-77
2021/08/13 01:16:30;;;;;;;17.17;10.98;;;;;;;17.64;92.17;95954.22;5077664;28;20098;-77
2021/08/13 01:19:12;;;;;;;13.93;9.65;;;;;;;17.73;91.94;95963.06;5091700;28;20063;-77
2021/08/13 01:22:09;;;;;;;14.45;11.00;;;;;;;17.67;92.24;95974.94;5089190;28;20063;-76
2021/08/13 01:24:38;;;;;;;14.55;10.13;;;;;;;17.76;92.23;95978.44;5080412;28;20097;-76
2021/08/13 01:27:22;;;;;;;16.85;10.85;;;;;;;17.80;91.81;95987.38;5091594;28;20493;-77
2021/08/13 01:30:08;;;;;;;16.15;10.18;;;;;;;17.96;90.40;95992.38;5080267;28;20036;-77
2021/08/13 01:32:40;;;;;;;14.70;9.90;;;;;;;18.14;89.31;95999.34;5084975;28;20042;-76
2021/08/13 01:35:10;;;;;;;13.88;9.38;;;;;;;18.23;88.70;96009.25;5080160;28;20340;-76
2021/08/13 01:37:38;;;;;;;15.27;9.32;;;;;;;18.21;88.33;96006.91;5090462;28;20421;-76
2021/08/13 01:40:06;;;;;;;20.45;9.20;;;;;;;18.25;88.60;95993.78;5090185;28;20513;-77
2021/08/13 01:42:33;;;;;;;12.98;8.75;;;;;;;18.18;88.74;96004.84;5092963;28;20740;-76
2021/08/13 01:45:01;;;;;;;14.35;8.80;;;;;;;18.16;88.56;96007.81;5108867;28;20051;-76
2021/08/13 01:47:28;;;;;;;14.93;9.40;;;;;;;17.94;88.97;96010.50;5090768;28;20318;-76
2021/08/13 01:49:54;;;;;;;17.08;10.23;;;;;;;17.91;89.13;95997.81;5089373;28;20063;-76
2021/08/13 01:52:22;;;;;;;14.40;8.98;;;;;;;17.69;90.47;95993.28;5086912;28;20059;-77
2021/08/13 01:54:48;;;;;;;13.80;9.30;;;;;;;17.56;91.09;95989.56;5076503;28;20051;-77
2021/08/13 01:57:14;;;;;;;15.20;9.30;;;;;;;17.59;90.67;95994.28;5073621;28;20453;-77
2021/08/13 01:59:40;;;;;;;14.15;9.68;;;;;;;17.44;91.91;95993.56;5085925;28;20040;-76
2021/08/13 02:02:06;;;;;;;13.13;8.98;;;;;;;17.48;91.80;96002.50;5082552;28;20417;-77
2021/08/13 02:04:32;;;;;;;13.95;9.30;;;;;;;17.80;90.63;96006.03;5086374;28;20044;-76
2021/08/13 02:06:58;;;;;;;15.52;10.20;;;;;;;17.83;90.04;96016.06;5091893;28;20055;-76
2021/08/13 02:09:25;;;;;;;15.98;9.52;;;;;;;17.66;90.73;96005.31;5086320;28;20086;-76
2021/08/13 02:11:51;;;;;;;14.57;9.55;;;;;;;17.56;91.19;96010.88;5090385;28;20046;-77
2021/08/13 02:14:17;;;;;;;12.35;9.57;;;;;;;17.57;91.28;96017.75;5087457;28;20043;-76
2021/08/13 02:16:47;;;;;;;14.75;10.00;;;;;;;17.65;90.71;96019.69;5089947;28;20054;-76
2021/08/13 02:19:20;;;;;;;12.77;9.27;;;;;;;17.36;91.53;96020.88;5089485;28;20036;-76
2021/08/13 02:21:48;;;;;;;13.35;9.73;;;;;;;17.35;91.17;96013.97;5091455;28;20047;-76
2021/08/13 02:24:17;;;;;;;14.45;8.75;;;;;;;17.43;91.23;96018.59;5088176;28;20040;-76
2021/08/13 02:26:47;;;;;;;12.48;8.85;;;;;;;17.27;91.23;96014.69;5080441;28;20056;-77
2021/08/13 02:29:13;;;;;;;16.13;9.38;;;;;;;17.08;92.27;96009.50;5080938;28;20059;-76
2021/08/13 02:31:38;;;;;;;15.60;9.52;;;;;;;17.07;92.79;96011.38;5085737;28;20041;-76
2021/08/13 02:34:04;;;;;;;11.70;9.40;;;;;;;17.07;92.97;96014.03;5073847;28;20446;-76
2021/08/13 02:37:01;;;;;;;14.80;9.82;;;;;;;17.12;92.30;96013.94;5097667;28;20051;-76
2021/08/13 02:39:38;;;;;;;11.88;8.75;;;;;;;17.28;91.65;96010.94;5084096;28;20043;-76
2021/08/13 02:42:05;;;;;;;13.48;9.45;;;;;;;17.21;92.02;96018.53;5088272;28;20043;-76
2021/08/13 02:44:34;;;;;;;16.00;9.23;;;;;;;17.13;91.59;96010.19;5089459;28;20040;-76
2021/08/13 02:47:03;;;;;;;14.40;8.98;;;;;;;17.02;92.38;96014.13;5091028;28;20463;-76
2021/08/13 02:49:30;;;;;;;11.57;8.95;;;;;;;17.11;92.57;96023.00;5076577;28;20052;-76
2021/08/13 02:52:04;;;;;;;13.20;9.05;;;;;;;17.25;91.58;96019.50;5075415;28;20041;-76
2021/08/13 02:54:32;;;;;;;13.88;9.20;;;;;;;17.04;91.75;96017.31;5083356;28;20047;-77
2021/08/13 02:57:01;;;;;;;13.27;9.40;;;;;;;17.06;92.25;96012.47;5081110;28;20044;-76
2021/08/13 02:59:30;;;;;;;12.70;9.52;;;;;;;16.87;92.77;96006.47;5073364;28;20546;-76
2021/08/13 03:01:59;;;;;;;13.88;9.10;;;;;;;16.75;92.59;96005.09;5083838;28;20451;-76
2021/08/13 03:04:28;;;;;;;14.70;8.98;;;;;;;16.92;93.07;96009.03;5086804;28;20679;-76
2021/08/13 03:06:55;;;;;;;11.73;8.95;;;;;;;16.83;93.14;96011.56;5090609;28;20115;-77
2021/08/13 03:09:23;;;;;;;13.50;9.05;;;;;;;16.78;93.01;96009.81;5087167;28;20516;-76
2021/08/13 03:11:50;;;;;;;14.55;10.15;;;;;;;16.76;93.93;96011.97;5076066;28;20051;-77
2021/08/13 03:14:16;;;;;;;13.18;9.02;;;;;;;16.67;93.52;96019.06;5076983;28;20111;-76
2021/08/13 03:16:43;;;;;;;12.75;9.23;;;;;;;16.63;93.51;96018.09;5099077;28;20043;-76
2021/08/13 03:19:10;;;;;;;13.00;9.00;;;;;;;16.68;93.41;96020.66;5080427;28;20043;-77
2021/08/13 03:21:36;;;;;;;12.95;8.73;;;;;;;16.68;93.09;96020.66;5089218;28;20062;-76
2021/08/13 03:24:02;;;;;;;13.50;9.18;;;;;;;16.65;93.57;96018.59;5088527;28;20458;-77
2021/08/13 03:26:28;;;;;;;15.75;9.40;;;;;;;16.57;94.05;96016.63;5093383;28;20608;-76
2021/08/13 03:28:54;;;;;;;12.18;8.45;;;;;;;16.66;93.81;96020.16;5094505;28;20115;-76
2021/08/13 03:31:52;;;;;;;14.85;9.10;;;;;;;16.73;92.94;96028.50;5087706;28;20569;-76
2021/08/13 03:34:18;;;;;;;13.02;9.77;;;;;;;16.61;93.52;96025.56;5035145;28;20061;-76
2021/08/13 03:36:43;;;;;;;14.32;8.90;;;;;;;16.56;93.85;96023.00;5092643;28;20063;-76
2021/08/13 03:39:11;;;;;;;11.98;8.90;;;;;;;16.55;94.13;96026.72;5110732;28;20130;-76
2021/08/13 03:41:37;;;;;;;12.68;8.70;;;;;;;16.54;93.21;96025.19;5085150;28;20037;-76
2021/08/13 03:44:03;;;;;;;13.93;9.43;;;;;;;16.57;93.01;96024.59;5101048;28;20420;-76
2021/08/13 03:46:29;;;;;;;12.15;9.30;;;;;;;16.58;92.94;96031.47;5091763;28;20052;-76
2021/08/13 03:48:55;;;;;;;13.10;9.65;;;;;;;16.35;94.34;96023.38;5099725;28;20052;-76
2021/08/13 03:51:21;;;;;;;13.40;9.38;;;;;;;16.39;93.93;96024.38;5079806;28;20036;-76
2021/08/13 03:53:47;;;;;;;13.05;9.57;;;;;;;16.37;93.95;96026.53;5072949;28;20033;-76
2021/08/13 03:56:12;;;;;;;15.35;9.75;;;;;;;16.16;95.01;96030.63;5081817;28;20070;-76
2021/08/13 03:58:38;;;;;;;13.82;9.60;;;;;;;16.27;94.78;96021.41;5090494;28;20048;-76
2021/08/13 04:01:06;;;;;;;16.23;9.50;;;;;;;16.38;93.38;96016.72;5081830;28;20056;-76
2021/08/13 04:03:31;;;;;;;13.27;9.18;;;;;;;16.34;93.54;96027.13;5086701;28;20047;-76
2021/08/13 04:05:57;;;;;;;14.63;9.15;;;;;;;16.27;94.78;96026.72;5088307;28;20044;-76
2021/08/13 04:08:22;;;;;;;12.30;9.13;;;;;;;16.30;94.85;96036.75;5089429;28;20055;-76
2021/08/13 04:10:48;;;;;;;15.77;9.88;;;;;;;16.32;93.93;96029.28;5088924;28;20078;-76
2021/08/13 04:13:13;;;;;;;16.00;10.23;;;;;;;16.32;94.33;96029.28;5101027;28;20432;-76
2021/08/13 04:15:40;;;;;;;13.05;9.60;;;;;;;16.38;94.62;96038.72;5075665;28;20039;-76
2021/08/13 04:18:06;;;;;;;14.80;9.52;;;;;;;16.45;94.87;96036.47;5088726;28;20055;-78
2021/08/13 04:20:31;;;;;;;12.88;10.00;;;;;;;16.47;94.54;96032.75;5089285;28;20481;-77
2021/08/13 04:22:57;;;;;;;13.60;9.10;;;;;;;16.58;94.30;96042.09;5089169;28;20135;-77
2021/08/13 04:25:22;;;;;;;15.00;8.95;;;;;;;16.52;94.57;96043.25;5087171;28;20052;-77
2021/08/13 04:27:48;;;;;;;13.57;9.45;;;;;;;16.59;94.18;96046.31;5074958;28;20048;-77
2021/08/13 04:30:13;;;;;;;11.75;9.43;;;;;;;16.62;94.59;96048.38;5087680;28;20745;-76
2021/08/13 04:32:40;;;;;;;14.60;9.35;;;;;;;16.82;93.59;96047.22;5088188;28;20043;-77
2021/08/13 04:35:06;;;;;;;15.25;9.73;;;;;;;16.84;94.28;96049.56;5087280;28;20097;-76
2021/08/13 04:37:32;;;;;;;14.05;9.05;;;;;;;16.86;94.31;96052.72;5085928;28;20769;-76
2021/08/13 04:39:58;;;;;;;13.45;9.50;;;;;;;16.89;95.02;96052.16;5092605;28;20041;-77
2021/08/13 04:42:23;;;;;;;12.60;9.13;;;;;;;17.05;94.32;96060.63;5074800;28;20039;-77
2021/08/13 04:44:49;;;;;;;12.00;8.95;;;;;;;17.05;94.56;96053.44;5087142;28;20126;-77
2021/08/13 04:47:14;;;;;;;12.82;9.15;;;;;;;17.04;94.78;96057.19;5085876;28;20129;-77
2021/08/13 04:49:40;;;;;;;13.35;8.77;;;;;;;17.17;93.97;96057.44;5087225;28;20494;-77
2021/08/13 04:52:05;;;;;;;13.95;9.07;;;;;;;17.25;94.48;96056.75;5088188;28;20082;-77
2021/08/13 04:54:31;;;;;;;13.73;9.55;;;;;;;17.28;94.38;96058.81;5081646;28;20040;-77
2021/08/13 04:56:58;;;;;;;13.38;9.13;;;;;;;17.35;94.75;96061.84;5069899;28;20555;-77
2021/08/13 04:59:23;;;;;;;12.68;8.65;;;;;;;17.51;94.25;96056.19;5088965;28;20078;-77
2021/08/13 05:01:49;;;;;;;12.82;9.13;;;;;;;17.53;94.21;96069.97;5082182;28;20127;-77
2021/08/13 05:04:15;;;;;;;13.57;8.75;;;;;;;17.54;93.99;96071.56;5088279;28;20112;-77
2021/08/13 05:06:40;;;;;;;14.30;9.40;;;;;;;17.59;94.41;96066.91;5087572;28;20126;-77
2021/08/13 05:09:06;;;;;;;14.38;9.45;;;;;;;17.84;92.98;96065.56;5086853;28;20458;-77
2021/08/13 05:11:31;;;;;;;12.38;9.15;;;;;;;17.93;93.31;96064.84;5081249;28;20040;-75
2021/08/13 05:13:57;;;;;;;14.23;9.02;;;;;;;17.97;93.88;96069.28;5084640;28;20044;-77
2021/08/13 05:16:22;;;;;;;11.50;8.60;;;;;;;18.17;92.04;96062.69;5081149;28;20044;-77
2021/08/13 05:18:48;;;;;;;13.15;8.95;;;;;;;18.42;88.76;96065.78;5081541;28;20475;-77
2021/08/13 05:21:13;;;;;;;13.35;8.40;;;;;;;18.61;87.80;96070.09;5083930;28;20032;-77
2021/08/13 05:24:17;;;;;;;14.68;8.77;;;;;;;18.81;86.59;96064.22;5085600;27;20401;-79
2021/08/13 05:26:42;;;;;;;16.83;8.63;;;;;;;18.91;86.01;96067.75;5066605;28;20072;-77
2021/08/13 05:29:08;;;;;;;12.27;8.68;;;;;;;19.01;85.57;96062.13;5064293;28;20067;-78
2021/08/13 05:31:33;;;;;;;16.05;8.40;;;;;;;19.11;84.70;96061.84;5067265;28;20099;-78
2021/08/13 05:33:59;;;;;;;15.02;8.90;;;;;;;19.14;85.02;96061.22;5065774;28;20490;-79
2021/08/13 05:36:24;;;;;;;12.25;8.30;;;;;;;19.28;83.91;96076.28;5057600;28;20044;-77
2021/08/13 05:38:50;;;;;;;10.30;7.97;;;;;;;19.31;83.69;96089.81;5069486;28;20063;-78
2021/08/13 05:41:15;;;;;;;15.18;8.70;;;;;;;19.35;83.50;96097.97;5064114;28;20487;-79
2021/08/13 05:43:41;;;;;;;14.50;8.85;;;;;;;19.43;82.74;96099.88;5058555;28;20079;-77
2021/08/13 05:46:06;;;;;;;15.85;8.18;;;;;;;19.49;83.00;96108.50;5066982;28;20055;-77
2021/08/13 05:48:32;;;;;;;13.43;8.45;;;;;;;19.53;83.32;96110.25;5066605;28;20036;-79
2021/08/13 05:50:57;;;;;;;29.73;10.35;;;;;;;19.39;90.10;96104.25;5060479;28;20469;-81
2021/08/13 05:53:23;;;;;;;22.13;10.52;;;;;;;19.03;93.45;96107.94;5065450;28;20049;-78
2021/08/13 05:55:48;;;;;;;15.13;9.85;;;;;;;18.81;94.31;96112.22;5063594;28;20087;-77
2021/08/13 05:58:14;;;;;;;15.38;9.65;;;;;;;18.70;95.42;96122.38;5058028;28;20048;-77
2021/08/13 06:00:39;;;;;;;16.67;9.68;;;;;;;18.73;94.99;96115.63;5050359;28;20171;-78
2021/08/13 06:03:05;;;;;;;19.52;10.50;;;;;;;18.71;95.90;96112.50;5057937;28;20503;-77
2021/08/13 06:05:31;;;;;;;19.00;10.15;;;;;;;18.71;96.00;96117.81;5046456;28;20037;-77
2021/08/13 06:07:57;;;;;;;15.05;8.55;;;;;;;18.70;95.25;96126.91;5043702;28;20056;-77
2021/08/13 06:10:22;;;;;;;15.32;8.23;;;;;;;18.67;92.88;96122.19;5053541;28;20045;-78
2021/08/13 06:12:48;;;;;;;23.55;9.40;;;;;;;18.53;93.30;96122.25;5049869;28;20073;-77
2021/08/13 06:15:15;;;;;;;15.48;7.57;;;;;;;18.44;91.73;96111.56;5050941;28;20114;-78
2021/08/13 06:17:42;;;;;;;13.95;7.70;;;;;;;18.30;92.67;96113.50;5043949;28;20049;-78
2021/08/13 06:20:09;;;;;;;14.82;6.93;;;;;;;18.23;92.83;96131.78;5057852;28;20668;-78
2021/08/13 06:22:35;;;;;;;13.25;7.75;;;;;;;17.91;94.57;96133.59;5057042;28;20034;-80
2021/08/13 06:25:01;;;;;;;14.55;7.72;;;;;;;17.76;95.52;96129.38;5065246;28;20040;-79
2021/08/13 06:27:26;;;;;;;14.02;7.75;;;;;;;17.65;95.40;96126.16;5066637;28;20047;-78
2021/08/13 06:29:52;;;;;;;16.80;8.35;;;;;;;17.71;96.34;96140.91;5064555;28;20102;-78
2021/08/13 06:32:19;;;;;;;18.48;7.97;;;;;;;17.66;96.85;96133.06;5053658;28;20057;-77
2021/08/13 06:34:45;;;;;;;15.70;8.25;;;;;;;17.66;96.47;96123.19;5052271;28;20504;-77
2021/08/13 06:37:11;;;;;;;16.65;8.15;;;;;;;17.69;96.28;96121.81;5052008;28;20073;-77
2021/08/13 06:39:37;;;;;;;16.48;7.93;;;;;;;17.59;96.89;96122.03;5050208;28;20347;-77
2021/08/13 06:42:03;;;;;;;14.75;8.25;;;;;;;17.59;97.00;96132.66;5036799;28;20450;-77
2021/08/13 06:44:28;;;;;;;16.40;8.32;;;;;;;17.68;97.93;96141.50;5051177;28;20037;-78
2021/08/13 06:46:54;;;;;;;15.80;8.88;;;;;;;17.59;99.38;96143.31;5050539;28;20045;-78
2021/08/13 06:49:19;;;;;;;17.33;8.90;;;;;;;17.52;99.64;96142.94;5049711;28;20045;-77
2021/08/13 06:51:45;;;;;;;18.70;9.20;;;;;;;17.53;100.00;96145.28;5055591;28;20048;-78
2021/08/13 06:54:11;;;;;;;19.35;9.77;;;;;;;17.53;100.00;96145.28;5056146;28;20131;-78
2021/08/13 06:56:36;;;;;;;16.17;10.13;;;;;;;17.67;100.00;96155.94;5055997;28;20048;-77
2021/08/13 06:59:01;;;;;;;18.05;9.95;;;;;;;17.87;100.00;96164.53;5056068;28;20278;-78
2021/08/13 07:01:27;;;;;;;14.48;8.98;;;;;;;17.95;100.00;96156.66;5048313;28;20049;-78
2021/08/13 07:03:53;;;;;;;14.25;8.60;;;;;;;18.31;100.00;96157.72;5054860;28;20116;-78
2021/08/13 07:06:18;;;;;;;14.70;9.43;;;;;;;18.55;99.34;96156.59;5053698;28;20045;-78
2021/08/13 07:08:44;;;;;;;17.50;9.57;;;;;;;18.59;100.00;96162.91;5051956;28;20048;-78
2021/08/13 07:11:09;;;;;;;16.85;8.98;;;;;;;18.85;98.99;96161.16;5043521;28;20044;-79
2021/08/13 07:13:35;;;;;;;13.82;8.82;;;;;;;19.05;98.01;96153.78;5044846;28;20044;-78
2021/08/13 07:16:01;;;;;;;16.10;8.55;;;;;;;19.20;98.47;96155.22;5051372;28;20033;-79
2021/08/13 07:18:26;;;;;;;11.25;8.80;;;;;;;19.29;99.09;96165.94;5051919;28;20033;-79
2021/08/13 07:20:52;;;;;;;16.33;8.90;;;;;;;19.48;97.28;96153.13;5047266;28;20152;-79
2021/08/13 07:23:17;;;;;;;14.88;8.68;;;;;;;19.52;98.57;96159.41;5043015;28;20164;-79
2021/08/13 07:25:42;;;;;;;19.05;9.38;;;;;;;19.49;99.46;96160.00;5054947;28;20432;-78
2021/08/13 07:28:08;;;;;;;15.57;8.90;;;;;;;19.43;100.00;96163.94;5052008;28;20041;-78
2021/08/13 07:30:34;;;;;;;13.50;9.50;;;;;;;19.37;100.00;96165.16;5046293;28;20466;-77
2021/08/13 07:32:59;;;;;;;13.75;9.35;;;;;;;19.81;98.43;96166.09;5045885;28;20052;-79
2021/08/13 07:35:25;;;;;;;17.83;9.35;;;;;;;19.90;97.41;96172.22;5052300;28;20064;-78
2021/08/13 07:37:50;;;;;;;15.27;9.40;;;;;;;20.08;98.96;96170.34;5054011;28;20045;-78
2021/08/13 07:40:16;;;;;;;15.00;8.70;;;;;;;20.37;93.75;96178.81;5050624;28;20068;-78
2021/08/13 07:42:42;;;;;;;12.90;8.65;;;;;;;20.48;93.48;96179.28;5049243;28;20041;-78
2021/08/13 07:45:08;;;;;;;11.68;7.90;;;;;;;20.52;93.10;96181.00;5050945;28;20426;-79
2021/08/13 07:47:34;;;;;;;14.90;8.00;;;;;;;20.92;90.11;96178.09;5051748;28;20059;-77
2021/08/13 07:50:00;;;;;;;14.18;8.18;;;;;;;21.10;91.27;96186.88;5039286;28;20558;-79
2021/08/13 07:52:26;;;;;;;11.73;8.48;;;;;;;21.08;91.55;96183.72;5052715;28;20484;-78
2021/08/13 07:54:52;;;;;;;18.75;9.10;;;;;;;21.06;93.31;96177.91;5052478;28;20045;-78
2021/08/13 07:57:18;;;;;;;12.80;8.82;;;;;;;21.24;92.32;96178.59;5048787;28;20098;-78
2021/08/13 07:59:44;;;;;;;12.75;8.25;;;;;;;21.33;90.01;96175.88;5035643;28;20046;-78
2021/08/13 08:02:10;;;;;;;12.27;8.50;;;;;;;21.36;87.40;96175.25;5036677;28;20142;-78
2021/08/13 08:04:37;;;;;;;11.55;7.95;;;;;;;21.33;86.79;96181.25;5038146;28;20093;-77
2021/08/13 08:07:03;;;;;;;13.52;8.25;;;;;;;21.58;85.55;96179.59;5041913;28;20064;-77
2021/08/13 08:09:28;;;;;;;13.18;8.13;;;;;;;21.74;85.03;96173.66;5039706;28;20041;-78
2021/08/13 08:11:54;;;;;;;12.82;7.63;;;;;;;21.93;84.15;96176.66;5040971;28;20589;-78
2021/08/13 08:14:20;;;;;;;12.68;8.13;;;;;;;21.72;84.66;96175.88;5037485;28;20060;-78
2021/08/13 08:16:46;;;;;;;10.70;7.68;;;;;;;21.74;81.97;96174.44;5037241;28;20057;-81
2021/08/13 08:19:12;;;;;;;12.05;7.82;;;;;;;21.96;85.26;96170.66;5036443;28;20051;-80
2021/08/13 08:21:38;;;;;;;14.88;8.15;;;;;;;22.16;84.89;96184.38;5038067;28;20057;-79
2021/08/13 08:24:04;;;;;;;13.93;8.20;;;;;;;22.11;84.89;96176.53;5038681;28;20045;-79
2021/08/13 08:26:29;;;;;;;11.95;7.75;;;;;;;22.10;83.59;96175.00;5040823;28;20069;-78
2021/08/13 08:28:55;;;;;;;12.60;7.55;;;;;;;22.21;84.12;96181.53;5038668;28;20048;-79
2021/08/13 08:31:21;;;;;;;12.63;7.68;;;;;;;22.63;82.13;96181.47;5030819;28;20131;-80
2021/08/13 08:33:46;;;;;;;14.55;7.40;;;;;;;22.70;80.54;96175.59;5032932;28;20052;-80
2021/08/13 08:36:12;;;;;;;15.23;7.50;;;;;;;22.60;80.18;96181.38;5044673;28;20516;-80
2021/08/13 08:38:37;;;;;;;10.18;6.60;;;;;;;22.76;80.24;96178.84;5041345;28;20044;-80
2021/08/13 08:41:05;;;;;;;14.02;7.43;;;;;;;22.95;79.43;96186.38;5038219;28;20072;-80
2021/08/13 08:43:31;;;;;;;15.93;7.05;;;;;;;23.16;81.09;96191.69;5039827;28;20095;-80
2021/08/13 08:45:57;;;;;;;15.73;7.75;;;;;;;23.09;80.11;96186.06;5037298;28;20061;-80
2021/08/13 08:48:23;;;;;;;12.57;7.45;;;;;;;23.22;79.73;96190.34;5033896;28;20094;-80
2021/08/13 08:50:49;;;;;;;13.55;7.53;;;;;;;23.38;77.11;96187.00;5036750;28;20057;-80
2021/08/13 08:53:21;;;;;;;14.63;7.47;;;;;;;23.34;78.91;96187.66;5042669;28;20049;-82
2021/08/13 08:55:48;;;;;;;15.95;7.53;;;;;;;23.30;80.30;96186.78;5037522;28;21040;-80
2021/08/13 08:58:15;;;;;;;14.60;7.18;;;;;;;23.38;80.56;96184.31;5035260;28;20052;-83
2021/08/13 09:00:40;;;;;;;14.07;7.20;;;;;;;23.07;76.11;96182.91;5042694;28;20037;-82
2021/08/13 09:03:06;;;;;;;9.98;6.88;;;;;;;23.17;78.67;96182.50;5036224;28;20052;-83
2021/08/13 09:05:32;;;;;;;12.32;7.15;;;;;;;23.43;77.55;96179.50;5033654;28;20048;-84
2021/08/13 09:07:57;;;;;;;14.05;6.95;;;;;;;23.82;73.41;96179.91;5039698;28;20036;-82
2021/08/13 09:10:23;;;;;;;12.40;7.28;;;;;;;23.76;73.90;96180.47;5030774;28;20040;-84
2021/08/13 09:12:52;;;;;;;13.35;7.03;;;;;;;23.75;75.85;96184.28;5041101;28;20052;-81
2021/08/13 09:15:29;;;;;;;11.50;6.95;;;;;;;23.42;74.31;96187.88;5030246;28;20049;-77
2021/08/13 09:18:17;;;;;;;14.65;7.75;;;;;;;23.42;77.18;96182.50;5044465;28;20057;-80
2021/08/13 09:20:44;;;;;;;11.80;6.70;;;;;;;23.85;73.98;96178.47;5028783;28;20045;-80
2021/08/13 09:23:26;;;;;;;10.88;6.47;;;;;;;23.82;73.69;96192.56;5030709;28;20061;-77
2021/08/13 09:26:00;;;;;;;12.77;7.20;;;;;;;24.27;72.18;96178.16;5049806;28;20044;-78
2021/08/13 09:28:44;;;;;;;;;;;;;;;24.35;70.75;96182.59;5044758;28;20052;-78
2021/08/13 09:31:21;;;;;;;8.63;6.45;;;;;;;24.18;75.12;96185.59;5043135;28;19928;-78
2021/08/13 09:33:52;;;;;;;11.43;7.10;;;;;;;24.67;68.83;96188.09;5043657;28;20049;-79
2021/08/13 09:36:19;;;;;;;11.75;6.55;;;;;;;24.48;71.86;96185.22;5042399;28;20057;-82
2021/08/13 09:38:47;;;;;;;11.90;6.93;;;;;;;24.67;73.09;96190.78;5042332;28;20041;-79
2021/08/13 09:41:17;;;;;;;13.15;6.88;;;;;;;24.88;71.78;96184.38;5045278;28;20477;-78
2021/08/13 09:43:58;;;;;;;9.93;6.70;;;;;;;24.45;71.78;96178.66;5041862;28;20128;-81
2021/08/13 09:46:26;;;;;;;10.05;6.68;;;;;;;24.90;71.95;96172.16;5042996;28;20065;-81
2021/08/13 09:48:51;;;;;;;11.35;6.57;;;;;;;25.06;66.66;96174.06;5042223;28;20060;-79
2021/08/13 09:51:46;;;;;;;10.90;6.13;;;;;;;25.17;66.80;96174.31;5045402;28;20546;-83
2021/08/13 09:54:12;;;;;;;10.73;6.05;;;;;;;25.23;66.58;96164.88;5038823;28;20057;-80
2021/08/13 09:56:39;;;;;;;10.23;6.30;;;;;;;25.29;65.36;96166.16;5042455;28;20040;-79
2021/08/13 09:59:10;;;;;;;11.57;5.80;;;;;;;25.39;64.05;96157.56;5047296;28;20041;-79
2021/08/13 10:01:45;;;;;;;9.57;6.32;;;;;;;25.44;64.77;96161.13;5049764;28;20048;-79
2021/08/13 10:04:12;;;;;;;11.95;5.72;;;;;;;25.35;62.76;96159.41;5048256;28;20048;-79
2021/08/13 10:06:39;;;;;;;13.10;6.15;;;;;;;25.62;64.16;96172.34;5049209;28;20057;-79
2021/08/13 10:09:05;;;;;;;16.17;6.07;;;;;;;25.90;64.35;96174.84;5050686;28;20495;-80
2021/08/13 10:11:35;;;;;;;8.43;5.70;;;;;;;26.18;63.14;96182.03;5051553;28;20067;-79
2021/08/13 10:14:04;;;;;;;15.32;5.10;;;;;;;26.47;56.20;96174.50;5052597;28;20068;-78
2021/08/13 10:16:29;;;;;;;10.63;4.93;;;;;;;26.37;55.42;96173.16;5051396;28;20574;-79
2021/08/13 10:18:55;;;;;;;7.80;4.90;;;;;;;26.24;57.49;96175.97;5049108;28;20064;-78
2021/08/13 10:21:25;;;;;;;12.85;5.55;;;;;;;26.53;56.71;96179.22;5051365;28;20061;-78
2021/08/13 10:23:53;;;;;;;8.93;5.60;;;;;;;26.76;58.36;96184.69;5050947;28;20033;-79
2021/08/13 10:26:20;;;;;;;7.80;4.40;;;;;;;27.12;52.88;96174.53;5040298;28;20147;-79
2021/08/13 10:28:50;;;;;;;12.45;4.75;;;;;;;27.10;55.73;96171.38;5037775;28;20042;-82
2021/08/13 10:31:18;;;;;;;18.60;5.05;;;;;;;27.19;54.48;96178.47;5050328;28;20514;-81
2021/08/13 10:33:45;;;;;;;8.85;4.72;;;;;;;27.10;52.40;96171.38;5044068;28;20037;-79
2021/08/13 10:36:15;;;;;;;13.52;5.30;;;;;;;27.16;53.87;96173.81;5036682;28;20045;-81
2021/08/13 10:38:42;;;;;;;7.50;4.95;;;;;;;27.41;54.69;96163.41;5041491;28;20084;-81
2021/08/13 10:41:08;;;;;;;7.88;5.45;;;;;;;28.04;52.28;96167.38;5047889;28;20112;-77
2021/08/13 10:43:37;;;;;;;8.80;5.10;;;;;;;28.45;50.73;96162.06;5051054;28;20037;-81
2021/08/13 10:46:07;;;;;;;11.38;5.15;;;;;;;28.42;49.71;96154.69;5051369;28;20577;-82
2021/08/13 10:48:35;;;;;;;9.13;5.57;;;;;;;28.03;49.89;96160.44;5049938;28;20040;-82
2021/08/13 10:51:01;;;;;;;11.40;5.80;;;;;;;28.28;56.95;96163.44;5039732;28;20041;-80
2021/08/13 10:53:28;;;;;;;9.60;4.90;;;;;;;28.44;52.56;96152.38;5036135;28;20056;-80
2021/08/13 10:55:54;;;;;;;10.82;5.82;;;;;;;28.57;51.60;96158.34;5050351;28;20044;-81
2021/08/13 10:58:35;;;;;;;10.23;5.63;;;;;;;29.57;48.31;96162.31;5048296;28;20091;-80
2021/08/13 11:01:08;;;;;;;9.13;5.40;;;;;;;29.72;46.79;96159.34;5050024;28;20044;-77
2021/08/13 11:03:41;;;;;;;8.77;5.47;;;;;;;29.65;47.49;96155.78;5041682;28;20048;-79
2021/08/13 11:06:08;;;;;;;9.75;5.72;;;;;;;29.58;48.96;96161.16;5054265;28;20045;-79
2021/08/13 11:08:39;;;;;;;12.10;5.57;;;;;;;29.75;45.43;96155.06;5051184;28;20048;-79
2021/08/13 11:11:05;;;;;;;13.30;5.20;;;;;;;30.18;44.20;96149.88;5048729;28;20048;-79
2021/08/13 11:13:38;;;;;;;11.35;5.80;;;;;;;30.77;44.38;96146.16;5049430;28;20128;-78
2021/08/13 11:16:28;;;;;;;13.02;6.13;;;;;;;30.69;44.75;96139.19;5052943;28;20565;-79
2021/08/13 11:19:07;;;;;;;12.43;5.90;;;;;;;30.88;43.43;96152.41;5048697;28;20119;-81
2021/08/13 11:21:35;;;;;;;9.38;5.50;;;;;;;31.13;43.87;96135.34;5038472;28;20041;-78
2021/08/13 11:24:09;;;;;;;12.45;5.95;;;;;;;31.17;47.33;96141.56;5045931;28;20120;-77
2021/08/13 11:26:47;;;;;;;9.20;5.68;;;;;;;31.82;40.59;96140.72;5043159;28;20052;-80